Flight Track Log - Related Links

Times and Time Zones

All times are in EDT time to prevent confusion due to time zone crossing. See the LAN438 flight status page for this flight to view local times or setup timezone preferences in your user account.

Time Position Orientation Groundspeed Altitude Reporting Facility
EDT Latitude Longitude Course Direction KTS MPH feet Rate Location/Type
Sun 05:00:54 AM -34.5480 -58.4350 305° West 152 175 800  Level FlightAware ADS-B
Sun 05:01:20 AM -34.5330 -58.4490 322° Northwest 180 207 1,800 2,000 Climbing FlightAware ADS-B
Sun 05:01:48 AM -34.5050 -58.4400 15° North 240 276 2,600 2,737 Climbing FlightAware ADS-B
Sun 05:02:17 AM -34.4810 -58.4180 37° Northeast 240 276 4,400 3,750 Climbing FlightAware ADS-B
Sun 05:02:44 AM -34.4550 -58.3950 36° Northeast 238 274 6,100 3,623 Climbing FlightAware ADS-B
Sun 05:03:10 AM -34.4300 -58.3810 25° Northeast 231 266 7,600 3,321 Climbing FlightAware ADS-B
Sun 05:03:40 AM -34.4040 -58.3980 332° Northwest 225 259 9,200 3,130 Climbing FlightAware ADS-B
Sun 05:03:56 AM -34.3990 -58.4180 287° West 234 269 10,000 2,036 Climbing FlightAware ADS-B
Sun 05:04:36 AM -34.4060 -58.4740 261° West 283 326 11,100 1,862 Climbing FlightAware ADS-B
Sun 05:05:52 AM -34.4250 -58.6020 260° West 337 388 13,600 2,400 Climbing FlightAware ADS-B
Sun 05:06:36 AM -34.4390 -58.6910 259° West 342 394 15,900 2,786 Climbing FlightAware ADS-B
Sun 05:07:16 AM -34.4510 -58.7700 260° West 357 411 17,500 2,602 Climbing FlightAware ADS-B
Sun 05:07:59 AM -34.4630 -58.8520 260° West 355 409 19,500 2,857 Climbing FlightAware ADS-B
Sun 05:08:40 AM -34.4750 -58.9320 260° West 352 405 21,500 2,296 Climbing FlightAware ADS-B
Sun 05:09:20 AM -34.4870 -59.0120 260° West 365 420 22,600 1,835 Climbing FlightAware ADS-B
Sun 05:10:05 AM -34.5000 -59.1020 260° West 368 423 24,100 1,931 Climbing FlightAware ADS-B
Sun 05:10:47 AM -34.5120 -59.1880 260° West 374 430 25,400 1,835 Climbing FlightAware ADS-B
Sun 05:11:30 AM -34.5250 -59.2780 260° West 378 435 26,700 1,791 Climbing FlightAware ADS-B
Sun 05:11:54 AM -34.5330 -59.3290 259° West 379 436 27,400 1,606 Climbing FlightAware ADS-B
Sun 05:12:41 AM -34.5460 -59.4240 261° West 383 441 28,600 1,517 Climbing FlightAware ADS-B
Sun 05:13:21 AM -34.5590 -59.5110 260° West 387 445 29,600 1,446 Climbing FlightAware ADS-B
Sun 05:14:04 AM -34.5700 -59.6050 262° West 390 449 30,600 1,857 Climbing FlightAware ADS-B
Sun 05:14:45 AM -34.5690 -59.6920 271° West 375 432 32,200 1,875 Climbing FlightAware ADS-B
Sun 05:15:24 AM -34.5680 -59.7740 271° West 375 432 33,100 1,286 Climbing FlightAware ADS-B
Sun 05:16:09 AM -34.5660 -59.8640 272° West 373 429 34,000 607 Climbing FlightAware ADS-B
Sun 05:16:53 AM -34.5640 -59.9580 271° West 371 427 34,000  Level FlightAware ADS-B
Sun 05:17:33 AM -34.5630 -60.0410 271° West 372 428 34,000  Level FlightAware ADS-B
Sun 05:18:12 AM -34.5610 -60.1220 272° West 371 427 34,000  Level FlightAware ADS-B
Sun 05:18:59 AM -34.5590 -60.2190 271° West 369 425 34,000  Level FlightAware ADS-B
Sun 05:19:39 AM -34.5570 -60.3040 272° West 368 423 34,000  Level FlightAware ADS-B
Sun 05:20:33 AM -34.5550 -60.4070 271° West 369 425 34,000  Level FlightAware ADS-B
Sun 05:21:18 AM -34.5520 -60.5060 272° West 368 423 34,000  Level FlightAware ADS-B
Sun 05:21:55 AM -34.5510 -60.5820 271° West 368 423 34,000  Level FlightAware ADS-B
Sun 05:22:43 AM -34.5490 -60.6710 272° West 368 423 34,000  Level FlightAware ADS-B
Sun 05:23:19 AM -34.5480 -60.7340 271° West 368 423 34,000  Level FlightAware ADS-B
Sun 05:24:07 AM -34.5470 -60.8180 271° West 368 423 34,000  Level FlightAware ADS-B
Sun 05:24:43 AM -34.5460 -60.8810 271° West 368 423 34,000  Level FlightAware ADS-B
Sun 05:25:07 AM -34.5450 -60.9230 272° West 368 423 34,000  Level FlightAware ADS-B
Sun 05:26:30 AM -34.5430 -61.0690 271° West 368 423 34,000  Level FlightAware ADS-B
Sun 05:27:06 AM -34.5420 -61.1320 271° West 368 423 34,000  Level FlightAware ADS-B
Sun 05:27:56 AM -34.5410 -61.2200 271° West 368 423 34,000  Level FlightAware ADS-B
Sun 05:28:32 AM -34.5400 -61.2840 271° West 368 423 34,000  Level FlightAware ADS-B
Sun 05:29:21 AM -34.5390 -61.3700 271° West 368 423 34,000  Level FlightAware ADS-B
Sun 05:29:57 AM -34.5380 -61.4330 271° West 368 423 34,000  Level FlightAware ADS-B
Sun 05:30:43 AM -34.5370 -61.5140 271° West 368 423 34,000  Level FlightAware ADS-B
Sun 05:31:19 AM -34.5360 -61.5770 271° West 368 423 34,000 214 Level FlightAware ADS-B
Sun 05:34:00 AM -34.5129 -61.8441 276° West  Level Estimated
Sun 05:35:00 AM -34.5041 -61.9436 276° West  Level Estimated
Sun 05:36:00 AM -34.4953 -62.0431 276° West  Level Estimated
Sun 05:37:00 AM -34.4864 -62.1426 276° West  Level Estimated
Sun 05:38:00 AM -34.4774 -62.2420 276° West  Level Estimated
Sun 05:39:00 AM -34.4683 -62.3415 276° West  Level Estimated
Sun 05:40:00 AM -34.4591 -62.4409 276° West  Level Estimated
Sun 05:41:00 AM -34.4499 -62.5402 276° West  Level Estimated
Sun 05:42:00 AM -34.4406 -62.6396 276° West  Level Estimated
Sun 05:43:00 AM -34.4312 -62.7389 277° West  Level Estimated
Sun 05:44:00 AM -34.4217 -62.8382 277° West  Level Estimated
Sun 05:45:00 AM -34.4121 -62.9375 277° West  Level Estimated
Sun 05:46:00 AM -34.4025 -63.0368 277° West  Level Estimated
Sun 05:47:00 AM -34.3928 -63.1361 277° West  Level Estimated
Sun 05:48:00 AM -34.3830 -63.2353 277° West  Level Estimated
Sun 05:49:00 AM -34.3731 -63.3345 277° West  Level Estimated
Sun 05:49:25 AM -34.0270 -63.9390 277° West 371 427 38,000  Level FlightAware ADS-B
Sun 05:50:11 AM -34.0110 -64.0220 283° West 370 426 38,000  Level FlightAware ADS-B
Sun 05:50:49 AM -33.9980 -64.0870 284° West 370 426 38,000  Level FlightAware ADS-B
Sun 05:51:37 AM -33.9830 -64.1690 282° West 370 426 38,000  Level FlightAware ADS-B
Sun 05:52:13 AM -33.9710 -64.2310 283° West 370 426 38,000  Level FlightAware ADS-B
Sun 05:52:50 AM -33.9590 -64.2940 283° West 370 426 38,000  Level FlightAware ADS-B
Sun 05:53:38 AM -33.9430 -64.3760 283° West 370 426 38,000  Level FlightAware ADS-B
Sun 05:54:21 AM -33.9070 -64.5300 286° West 369 425 38,000  Level FlightAware ADS-B
Sun 05:55:02 AM -33.8940 -64.5990 283° West 370 426 38,000  Level FlightAware ADS-B
Sun 05:56:15 AM -33.8660 -64.7360 284° West 371 427 38,000  Level FlightAware ADS-B
Sun 05:57:03 AM -33.8500 -64.8190 283° West 371 427 38,000  Level FlightAware ADS-B
Sun 05:57:39 AM -33.8390 -64.8800 282° West 371 427 38,000  Level FlightAware ADS-B
Sun 05:58:27 AM -33.8230 -64.9620 283° West 371 427 38,000  Level FlightAware ADS-B
Sun 05:59:03 AM -33.8110 -65.0240 283° West 371 427 38,000  Level FlightAware ADS-B
Sun 05:59:52 AM -33.7950 -65.1080 283° West 371 427 38,000  Level FlightAware ADS-B
Sun 06:00:29 AM -33.7830 -65.1710 283° West 371 427 38,000  Level FlightAware ADS-B
Sun 06:01:17 AM -33.7670 -65.2530 283° West 371 427 38,000  Level FlightAware ADS-B
Sun 06:01:53 AM -33.7170 -65.4320 289° West 374 430 38,000  Level FlightAware ADS-B
Sun 06:02:37 AM -33.6930 -65.5250 287° West 374 430 38,000  Level FlightAware ADS-B
Sun 06:03:17 AM -33.6770 -65.5930 286° West 374 430 38,000  Level FlightAware ADS-B
Sun 06:04:05 AM -33.6570 -65.6750 286° West 374 430 38,000  Level FlightAware ADS-B
Sun 06:04:42 AM -33.6420 -65.7380 286° West 374 430 38,000  Level FlightAware ADS-B
Sun 06:05:28 AM -33.6240 -65.8160 285° West 374 430 38,000  Level FlightAware ADS-B
Sun 06:06:05 AM -33.6090 -65.8790 286° West 374 430 38,000  Level FlightAware ADS-B
Sun 06:06:53 AM -33.5890 -65.9600 286° West 374 430 38,000  Level FlightAware ADS-B
Sun 06:07:30 AM -33.5740 -66.0230 286° West 374 430 38,000  Level FlightAware ADS-B
Sun 06:08:06 AM -33.5600 -66.0840 285° West 374 430 38,000  Level FlightAware ADS-B
Sun 06:08:54 AM -33.5400 -66.1650 286° West 374 430 38,000  Level FlightAware ADS-B
Sun 06:09:30 AM -33.5260 -66.2270 285° West 374 430 38,000  Level FlightAware ADS-B
Sun 06:10:18 AM -33.5060 -66.3080 286° West 374 430 38,000  Level FlightAware ADS-B
Sun 06:10:56 AM -33.4910 -66.3720 286° West 374 430 38,000  Level FlightAware ADS-B
Sun 06:11:30 AM -33.4770 -66.4300 286° West 374 430 38,000  Level FlightAware ADS-B
Sun 06:12:18 AM -33.4570 -66.5110 286° West 374 430 38,000 Level FlightAware ADS-B
Sun 06:14:00 AM -33.4572 -66.6790 270° West  Level Estimated
Sun 06:15:00 AM -33.4573 -66.7779 270° West  Level Estimated
Sun 06:16:00 AM -33.4573 -66.8767 270° West  Level Estimated
Sun 06:17:00 AM -33.4571 -66.9756 270° West  Level Estimated
Sun 06:18:00 AM -33.4570 -67.0744 270° West  Level Estimated
Sun 06:19:00 AM -33.4567 -67.1733 270° West  Level Estimated
Sun 06:20:00 AM -33.4563 -67.2721 270° West  Level Estimated
Sun 06:21:00 AM -33.4559 -67.3710 270° West  Level Estimated
Sun 06:22:00 AM -33.4554 -67.4698 270° West  Level Estimated
Sun 06:23:00 AM -33.4548 -67.5686 270° West  Level Estimated
Sun 06:24:00 AM -33.4542 -67.6675 270° West  Level Estimated
Sun 06:25:00 AM -33.4534 -67.7663 270° West  Level Estimated
Sun 06:26:00 AM -33.4526 -67.8652 271° West  Level Estimated
Sun 06:27:00 AM -33.4517 -67.9640 271° West  Level Estimated
Sun 06:27:16 AM -32.9270 -68.4490 271° West 385 443 38,100  Level FlightAware ADS-B
Sun 06:27:55 AM -32.9050 -68.5280 288° West 385 443 38,000 -71 Descending FlightAware ADS-B
Sun 06:28:40 AM -32.8800 -68.6200 288° West 386 444 38,000  Level FlightAware ADS-B
Sun 06:29:16 AM -32.8590 -68.6920 289° West 384 442 38,000  Level FlightAware ADS-B
Sun 06:29:57 AM -32.8420 -68.7680 285° West 375 432 38,000  Level FlightAware ADS-B
Sun 06:31:11 AM -32.8380 -68.9220 272° West 365 420 38,000  Level FlightAware ADS-B
Sun 06:31:57 AM -32.8420 -69.0080 267° West 362 417 38,000  Level FlightAware ADS-B
Sun 06:32:34 AM -32.8460 -69.0880 267° West 365 420 38,000  Level FlightAware ADS-B
Sun 06:33:33 AM -32.8510 -69.2040 267° West 356 410 38,000  Level FlightAware ADS-B
Sun 06:34:15 AM -32.8540 -69.2820 267° West 362 417 38,000  Level FlightAware ADS-B
Sun 06:34:56 AM -32.8580 -69.3690 267° West 371 427 38,000 -480 Level FlightAware ADS-B
Sun 06:35:55 AM -32.8620 -69.4790 267° West 333 383 37,200 -1,263 Descending FlightAware ADS-B
Sun 06:36:31 AM -32.8660 -69.5500 266° West 326 375 36,000 -2,222 Descending FlightAware ADS-B
Sun 06:37:16 AM -32.8690 -69.6290 267° West 326 375 34,200 -2,163 Descending FlightAware ADS-B
Sun 06:37:57 AM -32.8720 -69.7020 267° West 331 381 32,900 -1,926 Descending FlightAware ADS-B
Sun 06:38:37 AM -32.8750 -69.7720 267° West 330 380 31,600 -1,317 Descending FlightAware ADS-B
Sun 06:39:19 AM -32.8780 -69.8400 267° West 329 379 31,100 -333 Descending FlightAware ADS-B
Sun 06:40:07 AM -32.8810 -69.9140 267° West 329 379 31,100 -2,675 Level FlightAware ADS-B
Sun 06:40:42 AM -32.8830 -69.9820 268° West 315 362 27,400 -3,825 Descending FlightAware ADS-B
Sun 06:41:27 AM -32.8770 -70.0650 275° West 307 353 26,000 -2,000 Descending FlightAware ADS-B
Sun 06:42:03 AM -32.8720 -70.1240 276° West 301 346 24,700 -1,560 Descending FlightAware ADS-B
Sun 06:43:07 AM -32.8630 -70.2250 276° West 302 348 23,400 -757 Descending FlightAware ADS-B
Sun 06:43:46 AM -32.8580 -70.2790 276° West 302 348 23,400 -2,530 Level FlightAware ADS-B
Sun 06:44:30 AM -32.8500 -70.3600 277° West 302 348 19,900 -3,512 Descending FlightAware ADS-B
Sun 06:45:08 AM -32.8440 -70.4290 276° West 303 349 18,600 -977 Descending FlightAware ADS-B
Sun 06:45:56 AM -32.8400 -70.4740 276° West 303 349 18,500 -71 Descending FlightAware ADS-B
Sun 06:46:32 AM -32.8350 -70.5250 277° West 303 349 18,500  Level FlightAware ADS-B
Sun 06:47:21 AM -32.8290 -70.5940 276° West 303 349 18,500  Level FlightAware ADS-B
Sun 06:47:57 AM -32.8250 -70.6450 275° West 303 349 18,500  Level FlightAware ADS-B
Sun 06:48:46 AM -32.8190 -70.7140 276° West 303 349 18,500  Level FlightAware ADS-B
Sun 06:49:23 AM -32.8140 -70.7660 277° West 303 349 18,500 -3,056 Level FlightAware ADS-B
Sun 06:52:00 AM -33.0297 -70.7734 182° South  Level Estimated
Sun 06:53:00 AM -33.1121 -70.7762 182° South  Level Estimated
Sun 06:53:15 AM -33.1930 -70.7970 182° South 234 269 4,800  Level FlightAware ADS-B
Sun 06:53:44 AM -33.2120 -70.7960 177° South 210 242 4,600 -750 Descending FlightAware ADS-B
Sun 06:54:19 AM -33.2430 -70.7940 177° South 188 216 4,000 -1,034 Descending FlightAware ADS-B
Sun 06:54:42 AM -33.2590 -70.7930 177° South 180 207 3,600 -500 Descending FlightAware ADS-B
Sun 06:55:07 AM -33.2770 -70.7920 177° South 180 207 3,600 -842 Level FlightAware ADS-B
Sun 06:55:39 AM -33.3040 -70.7910 178° South 153 176 2,800 -789 Descending FlightAware ADS-B
Sun 06:56:23 AM -33.3300 -70.7890 176° South 151 174 2,600 -623 Descending FlightAware ADS-B
Sun 06:56:56 AM -33.3610 -70.7870 177° South 147 169 2,000 -1,091 Descending FlightAware ADS-B
Sun 06:58:40 AM -33.3970 -70.7870 180° South 147 169 -1,154 Descending FlightAware ADS-B
Sun 06:59:08 AM -33.3920 -70.7680 73° East 147 169  Level FlightAware ADS-B
Sun 06:59:44 AM -33.4040 -70.7730 199° South 147 169  Level FlightAware ADS-B
Sun 07:00:39 AM -33.3940 -70.7890 307° West 147 169  Level FlightAware ADS-B
Sun 07:01:58 AM -33.3960 -70.7790 103° East 147 169  Level FlightAware ADS-B
Sun 07:04:00 AM -33.3930 -70.7858 270° West  Level Estimated
Sun 07:05:00 AM -33.3930 -70.7858 270° West  Level Estimated
Sun 07:06:00 AM -33.3930 -70.7858 270° West  Level Estimated
Sun 07:07:00 AM -33.3930 -70.7858 270° West  Level Estimated
Sun 07:08:00 AM -33.3930 -70.7858 270° West  Level Estimated
Sun 07:09:00 AM -33.3930 -70.7858 270° West  Level Estimated

Login

Don't have an account? Register now (free) for customized features, flight alerts, and more!